Time;durP1;ratioP1;P1;durP2;ratioP2;P2;SDS_P1;SDS_P2;PMS_P1;PMS_P2;Temp;Humidity;BMP_temperature;BMP_pressure;BME280_temperature;BME280_humidity;BME280_pressure;Samples;Min_cycle;Max_cycle;Signal;HPM_P1;HPM_P2
2022/05/27 00:00:24;;;;;;;3.28;1.00;;;16.90;99.90;;;;;;4182893;28;20117;-66
2022/05/27 00:02:25;;;;;;;;;;;16.90;99.90;;;;;;4181128;28;20404;-66
2022/05/27 00:04:25;;;;;;;4.78;1.40;;;17.00;99.90;;;;;;4182548;28;19923;-66
2022/05/27 00:06:27;;;;;;;2.97;1.40;;;16.90;99.90;;;;;;4182999;28;20037;-66
2022/05/27 00:08:28;;;;;;;5.22;1.65;;;16.90;99.90;;;;;;4182214;28;20503;-66
2022/05/27 00:10:29;;;;;;;4.60;1.42;;;16.90;99.90;;;;;;4182161;28;20033;-66
2022/05/27 00:12:29;;;;;;;2.45;1.25;;;16.90;99.90;;;;;;4181604;28;20170;-66
2022/05/27 00:14:30;;;;;;;3.47;1.17;;;16.90;99.90;;;;;;4181729;28;20029;-66
2022/05/27 00:16:30;;;;;;;2.42;1.20;;;16.90;99.90;;;;;;4181602;28;20031;-69
2022/05/27 00:18:31;;;;;;;2.63;1.23;;;16.90;99.90;;;;;;4185764;28;20020;-66
2022/05/27 00:20:32;;;;;;;2.65;1.40;;;16.90;99.90;;;;;;4180618;28;20025;-66
2022/05/27 00:22:33;;;;;;;1.80;1.00;;;16.90;99.90;;;;;;4181346;28;20041;-66
2022/05/27 00:24:36;;;;;;;4.63;1.65;;;16.90;99.90;;;;;;4182637;28;20032;-66
2022/05/27 00:26:36;;;;;;;;;;;16.90;99.90;;;;;;4181431;28;20479;-66
2022/05/27 00:28:37;;;;;;;2.40;1.25;;;16.90;99.90;;;;;;4183305;28;19999;-66
2022/05/27 00:30:37;;;;;;;2.42;1.15;;;17.00;99.90;;;;;;4181084;28;20095;-66
2022/05/27 00:32:39;;;;;;;4.43;1.58;;;17.00;99.90;;;;;;4184953;28;20451;-66
2022/05/27 00:34:40;;;;;;;3.17;1.50;;;16.90;99.90;;;;;;4182376;28;20051;-66
2022/05/27 00:36:41;;;;;;;4.15;1.40;;;16.90;99.90;;;;;;4179970;28;20035;-66
2022/05/27 00:38:42;;;;;;;4.65;1.75;;;16.90;99.90;;;;;;4181160;28;20040;-66
2022/05/27 00:40:52;;;;;;;3.08;1.30;;;16.90;99.90;;;;;;4181459;28;20202;-66
2022/05/27 00:42:53;;;;;;;2.92;1.13;;;16.90;99.90;;;;;;4182516;28;20045;-66
2022/05/27 00:44:54;;;;;;;5.00;1.00;;;16.90;99.90;;;;;;4181198;28;20397;-66
2022/05/27 00:47:01;;;;;;;4.40;1.30;;;16.90;99.90;;;;;;4179153;28;20041;-66
2022/05/27 00:49:12;;;;;;;1.55;1.00;;;16.90;99.90;;;;;;4182021;28;20067;-66
2022/05/27 00:51:21;;;;;;;4.95;1.42;;;16.90;99.90;;;;;;4182353;28;20063;-66
2022/05/27 00:53:35;;;;;;;2.47;1.30;;;16.90;99.90;;;;;;4182956;28;20052;-66
2022/05/27 00:55:47;;;;;;;3.15;1.35;;;16.90;99.90;;;;;;4180311;28;20045;-66
2022/05/27 00:57:53;;;;;;;3.67;1.73;;;16.90;99.90;;;;;;4183218;28;20049;-66
2022/05/27 01:00:12;;;;;;;3.05;1.30;;;16.80;99.90;;;;;;4184967;28;20094;-66
2022/05/27 01:02:13;;;;;;;3.95;1.38;;;16.90;99.90;;;;;;4179460;28;20119;-66
2022/05/27 01:04:15;;;;;;;2.92;1.40;;;16.90;99.90;;;;;;4181817;28;20047;-66
2022/05/27 01:06:16;;;;;;;4.28;1.50;;;16.90;99.90;;;;;;4178217;28;20040;-69
2022/05/27 01:08:18;;;;;;;4.55;1.60;;;16.90;99.90;;;;;;4184113;28;20045;-66
2022/05/27 01:10:19;;;;;;;;;;;16.90;99.90;;;;;;4182539;28;20049;-66
2022/05/27 01:13:13;;;;;;;4.40;1.60;;;16.80;99.90;;;;;;4181809;28;19998;-66
2022/05/27 01:15:32;;;;;;;;;;;16.80;99.90;;;;;;4130496;28;20089;-67
2022/05/27 01:18:16;;;;;;;2.97;1.23;;;16.70;99.90;;;;;;4132577;28;19909;-66
2022/05/27 01:20:23;;;;;;;;;;;16.70;99.90;;;;;;4159128;28;20395;-66
2022/05/27 01:23:03;;;;;;;3.05;1.38;;;16.70;99.90;;;;;;4183517;28;19917;-66
2022/05/27 01:25:41;;;;;;;3.10;1.30;;;16.70;99.90;;;;;;4182112;28;20490;-67
2022/05/27 01:27:59;;;;;;;3.92;1.40;;;16.70;99.90;;;;;;4184139;28;20036;-66
2022/05/27 01:30:23;;;;;;;3.72;1.42;;;16.80;99.90;;;;;;4185868;28;20128;-66
2022/05/27 01:32:35;;;;;;;3.30;1.20;;;16.80;99.90;;;;;;4185665;28;20033;-66
2022/05/27 01:34:52;;;;;;;5.93;1.80;;;16.80;99.90;;;;;;4182929;28;20229;-66
2022/05/27 01:37:22;;;;;;;3.03;1.50;;;16.80;99.90;;;;;;4182624;28;20514;-66
2022/05/27 01:39:33;;;;;;;4.50;1.60;;;16.80;99.90;;;;;;4182669;28;20029;-66
2022/05/27 01:41:38;;;;;;;3.70;1.35;;;16.80;99.90;;;;;;4181887;28;20071;-66
2022/05/27 01:43:48;;;;;;;3.50;1.25;;;16.80;99.90;;;;;;4184691;28;20108;-66
2022/05/27 01:46:04;;;;;;;3.30;1.30;;;16.80;99.90;;;;;;4166859;28;20064;-67
2022/05/27 01:48:20;;;;;;;4.35;1.45;;;16.80;99.90;;;;;;4166736;28;20033;-66
2022/05/27 01:50:26;;;;;;;7.90;1.60;;;16.70;99.90;;;;;;4178758;28;20126;-66
2022/05/27 01:52:50;;;;;;;4.47;1.30;;;16.70;99.90;;;;;;4186501;28;20124;-66
2022/05/27 01:55:12;;;;;;;4.38;1.70;;;16.70;99.90;;;;;;4176662;28;20102;-66
2022/05/27 01:57:23;;;;;;;3.03;1.50;;;16.70;99.90;;;;;;4163870;28;20087;-66
2022/05/27 01:59:57;;;;;;;2.45;1.33;;;16.70;99.90;;;;;;4167032;28;20064;-66
2022/05/27 02:02:07;;;;;;;2.55;1.48;;;16.80;99.90;;;;;;4144468;28;20029;-66
2022/05/27 02:04:25;;;;;;;4.18;1.98;;;16.80;99.90;;;;;;4165398;28;20026;-66
2022/05/27 02:06:28;;;;;;;5.60;1.85;;;16.80;99.90;;;;;;4166319;28;20076;-66
2022/05/27 02:08:32;;;;;;;5.65;1.80;;;16.80;99.90;;;;;;4166468;28;20026;-66
2022/05/27 02:10:44;;;;;;;4.22;2.20;;;16.70;99.90;;;;;;4180792;28;20469;-66
2022/05/27 02:12:52;;;;;;;6.53;1.85;;;16.70;99.90;;;;;;4184638;28;20044;-66
2022/05/27 02:14:58;;;;;;;6.85;1.92;;;16.60;99.90;;;;;;4183833;28;20044;-66
2022/05/27 02:17:07;;;;;;;2.25;1.33;;;16.60;99.90;;;;;;4180227;28;20029;-66
2022/05/27 02:19:12;;;;;;;4.13;1.70;;;16.50;99.90;;;;;;4182179;28;20036;-66
2022/05/27 02:21:34;;;;;;;6.35;1.92;;;16.50;99.90;;;;;;4182372;28;20029;-66
2022/05/27 02:24:03;;;;;;;4.55;1.73;;;16.60;99.90;;;;;;4185642;28;20088;-67
2022/05/27 02:26:12;;;;;;;3.63;1.75;;;16.60;99.90;;;;;;4178127;28;20179;-66
2022/05/27 02:28:18;;;;;;;3.67;1.95;;;16.50;99.90;;;;;;4181375;28;20036;-66
2022/05/27 02:30:23;;;;;;;10.13;2.83;;;16.50;99.90;;;;;;4180353;28;20129;-67
2022/05/27 02:32:29;;;;;;;5.78;2.05;;;16.40;99.90;;;;;;4184131;28;20025;-67
2022/05/27 02:37:01;;;;;;;6.45;2.20;;;16.40;99.90;;;;;;4176893;28;20377;-67
2022/05/27 02:39:02;;;;;;;5.50;1.95;;;16.30;99.90;;;;;;4182445;28;20098;-69
2022/05/27 02:41:22;;;;;;;6.47;2.67;;;16.30;99.90;;;;;;4180909;28;20034;-67
2022/05/27 02:43:47;;;;;;;6.63;2.72;;;16.30;99.90;;;;;;4181439;28;20037;-68
2022/05/27 02:46:00;;;;;;;4.47;2.35;;;16.20;99.90;;;;;;4180537;28;20044;-69
2022/05/27 02:48:04;;;;;;;7.18;2.63;;;16.20;99.90;;;;;;4180938;28;20040;-68
2022/05/27 02:50:40;;;;;;;5.13;2.40;;;16.10;99.90;;;;;;4177846;28;20033;-68
2022/05/27 02:52:54;;;;;;;6.97;2.92;;;16.10;99.90;;;;;;4143548;28;20029;-68
2022/05/27 02:55:26;;;;;;;10.95;3.70;;;16.00;99.90;;;;;;4179166;28;20106;-68
2022/05/27 02:57:35;;;;;;;8.45;2.97;;;15.90;99.90;;;;;;4148602;28;20120;-68
2022/05/27 02:59:37;;;;;;;7.97;2.80;;;15.90;99.90;;;;;;4180821;28;20048;-68
2022/05/27 03:01:38;;;;;;;6.55;2.78;;;15.90;99.90;;;;;;4181441;28;20112;-68
2022/05/27 03:03:38;;;;;;;5.00;2.60;;;15.80;99.90;;;;;;4182572;28;20048;-68
2022/05/27 03:05:42;;;;;;;5.35;2.65;;;15.80;99.90;;;;;;4182957;28;20396;-68
2022/05/27 03:08:04;;;;;;;4.40;2.47;;;15.70;99.90;;;;;;4185020;28;20042;-68
2022/05/27 03:10:26;;;;;;;4.60;2.90;;;15.70;99.90;;;;;;4184534;28;20040;-69
2022/05/27 03:12:54;;;;;;;6.97;2.88;;;15.70;99.90;;;;;;4185404;28;20043;-68
2022/05/27 03:15:09;;;;;;;6.50;2.65;;;15.70;99.90;;;;;;4185105;28;20500;-68
2022/05/27 03:17:21;;;;;;;7.28;2.70;;;15.70;99.90;;;;;;4184290;28;20143;-68
2022/05/27 03:19:42;;;;;;;7.50;3.60;;;15.70;99.90;;;;;;4185146;28;20041;-68
2022/05/27 03:21:58;;;;;;;10.23;3.42;;;15.60;99.90;;;;;;4185968;28;20029;-67
2022/05/27 03:24:14;;;;;;;5.70;2.95;;;15.60;99.90;;;;;;4182938;28;20048;-67
2022/05/27 03:26:44;;;;;;;4.20;2.72;;;15.60;99.90;;;;;;4182183;28;20543;-68
2022/05/27 03:29:04;;;;;;;5.88;2.10;;;15.50;99.90;;;;;;4185988;28;20031;-68
2022/05/27 03:31:14;;;;;;;4.53;2.42;;;15.50;99.90;;;;;;4183897;28;20044;-68
2022/05/27 03:33:34;;;;;;;5.30;2.20;;;15.50;99.90;;;;;;4186570;28;20032;-67
2022/05/27 03:36:01;;;;;;;5.57;2.30;;;15.50;99.90;;;;;;4184023;28;20564;-68
2022/05/27 03:38:14;;;;;;;5.55;2.25;;;15.50;99.90;;;;;;4184174;28;20056;-68
2022/05/27 03:40:20;;;;;;;;;;;15.50;99.90;;;;;;4184141;28;20056;-68
2022/05/27 03:42:24;;;;;;;4.13;2.10;;;15.50;99.90;;;;;;4185376;28;20019;-68
2022/05/27 03:44:27;;;;;;;4.93;2.20;;;15.50;99.90;;;;;;4186645;28;20085;-68
2022/05/27 03:46:33;;;;;;;2.72;1.90;;;15.50;99.90;;;;;;4182593;28;20040;-68
2022/05/27 03:48:35;;;;;;;4.13;1.92;;;15.50;99.90;;;;;;4187134;28;20040;-68
2022/05/27 03:50:36;;;;;;;6.68;2.50;;;15.60;99.90;;;;;;4187791;28;20381;-68
2022/05/27 03:52:41;;;;;;;3.35;1.95;;;15.50;99.90;;;;;;4183099;28;20034;-68
2022/05/27 03:54:41;;;;;;;3.85;1.83;;;15.50;99.90;;;;;;4182758;28;20049;-68
2022/05/27 03:56:43;;;;;;;2.95;2.00;;;15.60;99.90;;;;;;4181109;28;20047;-68
2022/05/27 03:58:43;;;;;;;3.35;1.70;;;15.60;99.90;;;;;;4183737;28;20032;-68
2022/05/27 04:00:44;;;;;;;2.67;1.75;;;15.60;99.90;;;;;;4185544;28;20108;-68
2022/05/27 04:02:45;;;;;;;3.22;2.30;;;15.70;99.90;;;;;;4183079;28;20105;-68
2022/05/27 04:04:46;;;;;;;3.22;2.28;;;15.70;99.90;;;;;;4183113;28;20631;-68
2022/05/27 04:06:47;;;;;;;2.10;1.70;;;15.70;99.90;;;;;;4183745;28;20048;-67
2022/05/27 04:08:47;;;;;;;1.85;1.70;;;15.70;99.90;;;;;;4186292;28;20029;-68
2022/05/27 04:10:48;;;;;;;4.82;1.92;;;15.70;99.90;;;;;;4182631;28;20033;-68
2022/05/27 04:12:49;;;;;;;2.28;1.20;;;15.70;99.90;;;;;;4187070;28;20119;-69
2022/05/27 04:14:53;;;;;;;3.75;1.70;;;15.80;99.90;;;;;;4186352;28;20025;-69
2022/05/27 04:17:27;;;;;;;4.95;2.08;;;15.80;99.90;;;;;;4185174;28;20562;-67
2022/05/27 04:19:16;;;;;;;3.95;1.85;;;15.80;99.90;;;;;;4182911;28;20036;-67
2022/05/27 04:21:17;;;;;;;3.53;1.90;;;15.80;99.90;;;;;;4184578;28;21089;-67
2022/05/27 04:23:18;;;;;;;3.03;1.88;;;15.70;99.90;;;;;;4181667;28;20801;-67
2022/05/27 04:25:18;;;;;;;3.03;1.90;;;15.70;99.90;;;;;;4183036;28;20125;-68
2022/05/27 04:27:20;;;;;;;2.13;1.65;;;15.70;99.90;;;;;;4184795;28;20118;-68
2022/05/27 04:29:20;;;;;;;2.40;1.50;;;15.70;99.90;;;;;;4185530;28;20049;-68
2022/05/27 04:31:21;;;;;;;2.78;1.35;;;15.60;99.90;;;;;;4185930;28;21018;-68
2022/05/27 04:33:22;;;;;;;3.13;1.50;;;15.70;99.90;;;;;;4183898;28;20515;-68
2022/05/27 04:35:23;;;;;;;2.45;1.23;;;15.60;99.90;;;;;;4185074;28;20036;-68
2022/05/27 04:37:24;;;;;;;3.13;1.55;;;15.70;99.90;;;;;;4185335;28;20062;-68
2022/05/27 04:39:25;;;;;;;1.77;1.33;;;15.70;99.90;;;;;;4182532;28;20041;-68
2022/05/27 04:41:25;;;;;;;1.95;1.27;;;15.70;99.90;;;;;;4183314;28;20036;-68
2022/05/27 04:43:26;;;;;;;3.58;1.60;;;15.70;99.90;;;;;;4182762;28;20175;-68
2022/05/27 04:45:26;;;;;;;2.72;1.60;;;15.70;99.90;;;;;;4184453;28;20033;-68
2022/05/27 04:47:27;;;;;;;4.05;1.70;;;15.70;99.90;;;;;;4185702;28;20503;-67
2022/05/27 04:51:47;;;;;;;1.85;1.25;;;15.50;99.90;;;;;;4180156;28;20025;-67
2022/05/27 04:53:47;;;;;;;1.42;1.33;;;15.50;99.90;;;;;;4182667;28;20609;-67
2022/05/27 04:55:48;;;;;;;2.10;1.30;;;15.50;99.90;;;;;;4182369;28;20499;-67
2022/05/27 04:57:53;;;;;;;2.85;1.80;;;15.50;99.90;;;;;;4186534;28;20399;-67
2022/05/27 04:59:55;;;;;;;1.90;1.27;;;15.50;99.90;;;;;;4181766;28;20044;-67
2022/05/27 05:01:56;;;;;;;2.95;1.70;;;15.50;99.90;;;;;;4183655;28;20128;-67
2022/05/27 05:03:56;;;;;;;2.67;1.40;;;15.50;99.90;;;;;;4186198;28;20039;-67
2022/05/27 05:05:57;;;;;;;2.20;1.10;;;15.60;99.90;;;;;;4184452;28;20040;-67
2022/05/27 05:08:02;;;;;;;2.90;1.65;;;15.60;99.90;;;;;;4183491;28;20051;-67
2022/05/27 05:10:03;;;;;;;2.05;1.17;;;15.60;99.90;;;;;;4181678;28;20074;-68
2022/05/27 05:12:05;;;;;;;2.58;1.33;;;15.60;99.90;;;;;;4181817;28;20044;-68
2022/05/27 05:14:06;;;;;;;3.15;1.42;;;15.60;99.90;;;;;;4181043;28;20037;-67
2022/05/27 05:16:06;;;;;;;3.50;1.42;;;15.60;99.90;;;;;;4183686;28;20101;-67
2022/05/27 05:18:07;;;;;;;1.75;1.23;;;15.50;99.90;;;;;;4187039;28;20089;-67
2022/05/27 05:20:11;;;;;;;4.07;1.80;;;15.50;99.90;;;;;;4183251;28;20036;-68
2022/05/27 05:22:13;;;;;;;4.22;1.33;;;15.40;99.90;;;;;;4180441;28;20098;-68
2022/05/27 05:24:13;;;;;;;3.88;1.67;;;15.40;99.90;;;;;;4179274;28;20044;-67
2022/05/27 05:26:14;;;;;;;4.25;1.75;;;15.30;99.90;;;;;;4183434;28;20032;-67
2022/05/27 05:28:14;;;;;;;2.38;1.50;;;15.40;99.90;;;;;;4179741;28;20033;-67
2022/05/27 05:30:17;;;;;;;3.35;1.63;;;15.40;99.90;;;;;;4179026;28;20051;-68
2022/05/27 05:32:18;;;;;;;3.63;1.70;;;15.40;99.90;;;;;;4179778;28;20048;-67
2022/05/27 05:34:18;;;;;;;2.30;1.27;;;15.40;99.90;;;;;;4180808;28;20037;-67
2022/05/27 05:36:19;;;;;;;3.88;1.77;;;15.40;99.90;;;;;;4179209;28;20049;-67
2022/05/27 05:38:20;;;;;;;2.42;1.13;;;15.40;99.90;;;;;;4179189;28;20056;-67
2022/05/27 05:40:20;;;;;;;2.10;1.23;;;15.40;99.90;;;;;;4180252;28;20041;-68
2022/05/27 05:42:21;;;;;;;2.42;1.40;;;15.40;99.90;;;;;;4183691;28;20052;-68
2022/05/27 05:44:22;;;;;;;2.97;1.33;;;15.40;99.90;;;;;;4182596;28;20044;-67
2022/05/27 05:46:23;;;;;;;3.45;1.50;;;15.40;99.90;;;;;;4182099;28;20037;-68
2022/05/27 05:48:24;;;;;;;2.05;1.23;;;15.50;99.90;;;;;;4180702;28;20045;-67
2022/05/27 05:50:25;;;;;;;5.38;1.75;;;15.50;99.90;;;;;;4183230;28;20075;-68
2022/05/27 05:52:25;;;;;;;2.25;1.20;;;15.50;99.90;;;;;;4182510;28;20065;-67
2022/05/27 05:54:28;;;;;;;1.65;1.23;;;15.50;99.90;;;;;;4179797;28;20042;-67
2022/05/27 05:56:33;;;;;;;3.08;1.38;;;15.50;99.90;;;;;;4182039;28;20797;-67
2022/05/27 05:58:34;;;;;;;2.08;1.25;;;15.50;99.90;;;;;;4181940;28;20036;-68
2022/05/27 06:00:34;;;;;;;2.22;1.40;;;15.60;99.90;;;;;;4180401;28;20029;-67
2022/05/27 06:02:35;;;;;;;6.07;1.90;;;15.60;99.90;;;;;;4181738;28;20108;-70
2022/05/27 06:04:36;;;;;;;4.38;1.70;;;15.60;99.90;;;;;;4183795;28;20658;-70
2022/05/27 06:06:39;;;;;;;1.73;1.30;;;15.60;99.90;;;;;;4179985;28;20036;-70
2022/05/27 06:08:40;;;;;;;2.35;1.08;;;15.70;99.90;;;;;;4178597;28;20036;-70
2022/05/27 06:10:41;;;;;;;2.15;1.33;;;15.70;99.90;;;;;;4182833;28;20048;-70
2022/05/27 06:12:42;;;;;;;2.97;1.52;;;15.70;99.90;;;;;;4177484;28;20484;-70
2022/05/27 06:14:43;;;;;;;3.83;1.42;;;15.80;99.90;;;;;;4182896;28;20397;-69
2022/05/27 06:16:43;;;;;;;5.05;1.63;;;15.90;99.90;;;;;;4183940;28;20078;-70
2022/05/27 06:18:45;;;;;;;4.78;1.67;;;15.90;99.90;;;;;;4184499;28;20025;-70
2022/05/27 06:20:46;;;;;;;3.38;1.45;;;16.00;99.90;;;;;;4181986;28;20028;-69
2022/05/27 06:22:46;;;;;;;3.10;1.70;;;16.00;99.90;;;;;;4179963;28;20124;-69
2022/05/27 06:24:47;;;;;;;5.03;1.85;;;16.10;99.90;;;;;;4183984;28;20467;-69
2022/05/27 06:26:48;;;;;;;4.22;1.45;;;16.30;99.90;;;;;;4182759;28;20085;-69
2022/05/27 06:35:46;;;;;;;3.75;1.80;;;16.70;99.90;;;;;;4184700;28;20025;-69
2022/05/27 06:37:48;;;;;;;2.53;1.45;;;16.80;99.90;;;;;;4183908;28;20108;-69
2022/05/27 06:39:49;;;;;;;4.25;1.65;;;16.90;99.90;;;;;;4182752;28;20096;-69
2022/05/27 06:41:50;;;;;;;4.60;1.60;;;17.10;99.90;;;;;;4178700;28;20056;-69
2022/05/27 06:43:51;;;;;;;5.97;1.75;;;17.10;99.90;;;;;;4181872;28;20029;-70
2022/05/27 06:45:52;;;;;;;4.47;1.77;;;17.20;99.90;;;;;;4181305;28;20091;-69
2022/05/27 06:47:52;;;;;;;3.92;1.80;;;17.10;99.90;;;;;;4177509;28;20119;-69
2022/05/27 06:49:53;;;;;;;4.97;1.90;;;17.20;99.90;;;;;;4184861;28;20036;-69
2022/05/27 06:51:53;;;;;;;9.35;2.00;;;17.20;99.90;;;;;;4183115;28;20041;-69
2022/05/27 06:53:54;;;;;;;8.43;2.33;;;17.20;99.90;;;;;;4183546;28;20121;-69
2022/05/27 06:55:55;;;;;;;3.35;1.98;;;17.10;99.90;;;;;;4183075;28;20049;-69
2022/05/27 06:57:56;;;;;;;3.50;1.75;;;17.10;99.90;;;;;;4181790;28;20040;-69
2022/05/27 06:59:58;;;;;;;5.10;1.90;;;17.20;99.90;;;;;;4185648;28;20040;-69
2022/05/27 07:01:59;;;;;;;5.35;2.22;;;17.10;99.90;;;;;;4182796;28;20044;-69
2022/05/27 07:04:00;;;;;;;4.38;2.40;;;17.10;99.90;;;;;;4185805;28;20044;-69
2022/05/27 07:06:01;;;;;;;5.13;2.55;;;17.10;99.90;;;;;;4187562;28;20411;-69
2022/05/27 07:08:04;;;;;;;3.85;2.55;;;17.10;99.90;;;;;;4187165;28;20048;-69
2022/05/27 07:10:05;;;;;;;6.07;2.63;;;17.00;99.90;;;;;;4188400;28;20089;-69
2022/05/27 07:12:09;;;;;;;5.68;2.50;;;17.00;99.90;;;;;;4184426;28;20083;-69
2022/05/27 07:14:11;;;;;;;5.90;2.42;;;17.10;99.90;;;;;;4185103;28;20174;-69
2022/05/27 07:16:12;;;;;;;6.40;3.05;;;17.20;99.90;;;;;;4184487;28;20037;-69
2022/05/27 07:18:12;;;;;;;6.15;3.03;;;17.20;99.90;;;;;;4184434;28;20025;-69
2022/05/27 07:20:13;;;;;;;5.78;2.97;;;17.20;99.90;;;;;;4182901;28;20040;-69
2022/05/27 07:22:14;;;;;;;6.47;3.00;;;17.20;99.90;;;;;;4182492;28;20051;-70
2022/05/27 07:24:18;;;;;;;8.32;3.00;;;17.20;99.90;;;;;;4184525;28;20048;-69
2022/05/27 07:26:19;;;;;;;5.55;2.53;;;17.20;99.90;;;;;;4180560;28;20531;-69
2022/05/27 07:28:20;;;;;;;5.05;3.03;;;17.30;99.90;;;;;;4184103;28;20041;-69
2022/05/27 07:30:21;;;;;;;10.25;3.70;;;17.40;99.90;;;;;;4186752;28;20492;-70
2022/05/27 07:32:21;;;;;;;6.53;3.00;;;17.40;99.90;;;;;;4185917;28;20060;-72
2022/05/27 07:34:22;;;;;;;7.05;3.13;;;17.40;99.90;;;;;;4183693;28;20075;-70
2022/05/27 07:36:23;;;;;;;6.85;2.58;;;17.50;99.90;;;;;;4182896;28;20099;-70
2022/05/27 07:38:24;;;;;;;6.88;2.90;;;17.50;99.90;;;;;;4186857;28;20036;-69
2022/05/27 07:40:25;;;;;;;6.57;3.03;;;17.50;99.90;;;;;;4180517;28;20202;-70
2022/05/27 07:42:25;;;;;;;9.40;3.08;;;17.60;99.90;;;;;;4183648;28;20037;-70
2022/05/27 07:44:26;;;;;;;6.78;3.40;;;17.70;99.90;;;;;;4185373;28;20036;-69
2022/05/27 07:46:29;;;;;;;7.97;3.35;;;17.80;99.90;;;;;;4184981;28;20045;-69
2022/05/27 07:48:30;;;;;;;11.60;4.00;;;17.90;99.90;;;;;;4185314;28;20408;-69
2022/05/27 07:50:31;;;;;;;7.75;3.03;;;17.90;99.90;;;;;;4183599;28;20041;-69
2022/05/27 07:52:34;;;;;;;9.93;3.80;;;17.90;99.90;;;;;;4185731;28;20162;-69
2022/05/27 07:54:35;;;;;;;8.52;2.97;;;17.90;99.90;;;;;;4166922;28;20477;-69
2022/05/27 07:56:35;;;;;;;8.38;3.05;;;18.00;99.90;;;;;;4166201;28;20040;-69
2022/05/27 07:58:36;;;;;;;7.25;2.88;;;18.10;99.90;;;;;;4167494;28;20125;-68
2022/05/27 08:00:38;;;;;;;9.10;3.30;;;18.20;99.90;;;;;;4168081;28;20041;-69
2022/05/27 08:02:39;;;;;;;8.38;2.40;;;18.30;99.90;;;;;;4169209;28;20033;-69
2022/05/27 08:04:40;;;;;;;10.87;2.43;;;18.30;99.90;;;;;;4168282;28;20393;-69
2022/05/27 08:06:41;;;;;;;5.65;2.53;;;18.40;99.90;;;;;;4166444;28;20260;-69
2022/05/27 08:08:41;;;;;;;10.88;2.72;;;18.50;99.90;;;;;;4167331;28;20033;-69
2022/05/27 08:10:42;;;;;;;10.10;2.60;;;18.40;99.90;;;;;;4167754;28;20037;-69
2022/05/27 08:12:43;;;;;;;8.40;2.83;;;18.40;99.90;;;;;;4170214;28;20033;-69
2022/05/27 08:14:44;;;;;;;7.30;2.45;;;18.40;99.90;;;;;;4170513;28;20400;-69
2022/05/27 08:16:44;;;;;;;6.47;2.38;;;18.40;99.90;;;;;;4168159;28;20040;-69
2022/05/27 08:18:45;;;;;;;11.07;3.15;;;18.40;99.90;;;;;;4168468;28;20041;-69
2022/05/27 08:20:45;;;;;;;8.50;2.67;;;18.30;99.90;;;;;;4166331;28;20037;-69
2022/05/27 08:22:47;;;;;;;8.43;2.25;;;18.20;99.90;;;;;;4167132;28;20446;-69
2022/05/27 08:24:48;;;;;;;8.00;3.00;;;18.20;99.90;;;;;;4169410;28;20029;-69
2022/05/27 08:26:48;;;;;;;7.28;2.58;;;18.10;99.90;;;;;;4169685;28;20033;-69
2022/05/27 08:28:49;;;;;;;6.47;2.72;;;18.20;99.90;;;;;;4165747;28;20029;-69
2022/05/27 08:30:51;;;;;;;10.23;2.30;;;18.20;99.90;;;;;;4170039;28;20570;-69
2022/05/27 08:32:52;;;;;;;13.02;2.70;;;18.20;99.90;;;;;;4168532;28;20458;-70
2022/05/27 08:39:31;;;;;;;11.02;2.88;;;18.40;99.90;;;;;;4180970;28;20044;-69
2022/05/27 08:41:53;;;;;;;12.45;2.83;;;18.60;99.90;;;;;;4184081;28;20045;-69
2022/05/27 08:44:30;;;;;;;8.18;2.35;;;18.70;99.90;;;;;;4170046;28;20431;-69
2022/05/27 08:46:46;;;;;;;5.15;2.08;;;18.80;99.90;;;;;;4181395;28;20485;-69
2022/05/27 08:48:52;;;;;;;9.68;3.05;;;18.90;99.90;;;;;;4184983;28;20384;-68
2022/05/27 08:51:04;;;;;;;12.27;2.72;;;19.00;99.90;;;;;;4183234;28;20095;-69
2022/05/27 08:53:14;;;;;;;5.97;1.88;;;18.90;99.90;;;;;;4183025;28;20055;-68
2022/05/27 09:00:27;;;;;;;9.07;2.28;;;18.90;99.90;;;;;;4180968;28;20091;-68
2022/05/27 09:02:36;;;;;;;7.90;2.13;;;18.80;99.90;;;;;;4184307;28;20048;-68
2022/05/27 09:04:49;;;;;;;7.60;2.10;;;18.80;99.90;;;;;;4181148;28;20021;-69
2022/05/27 09:06:55;;;;;;;11.48;3.13;;;18.80;99.90;;;;;;4182227;28;20806;-68
2022/05/27 09:08:55;;;;;;;12.15;2.90;;;18.80;99.90;;;;;;4179603;28;20150;-68
2022/05/27 09:11:11;;;;;;;10.07;2.33;;;18.80;99.90;;;;;;4180854;28;20329;-69
2022/05/27 09:13:21;;;;;;;9.27;2.83;;;19.00;99.90;;;;;;4182230;28;20037;-68
2022/05/27 09:15:51;;;;;;;10.35;2.75;;;19.10;99.90;;;;;;4181030;28;20163;-68
2022/05/27 09:18:14;;;;;;;12.35;2.65;;;19.30;99.90;;;;;;4180074;28;21142;-68
2022/05/27 09:20:49;;;;;;;10.55;2.47;;;19.20;99.90;;;;;;4181186;28;20043;-69
2022/05/27 09:22:53;;;;;;;6.90;2.67;;;19.20;99.90;;;;;;4180862;28;20064;-68
2022/05/27 09:25:19;;;;;;;6.78;2.22;;;19.20;99.90;;;;;;4167491;28;20044;-69
2022/05/27 09:27:41;;;;;;;11.93;2.65;;;19.20;99.90;;;;;;4154599;28;20048;-68
2022/05/27 09:29:50;;;;;;;16.77;2.78;;;19.10;99.90;;;;;;4181611;28;20500;-69
2022/05/27 09:32:02;;;;;;;8.23;2.58;;;19.00;99.90;;;;;;4181162;28;20124;-68
2022/05/27 09:34:03;;;;;;;8.52;2.40;;;18.90;99.90;;;;;;4184491;28;20049;-68
2022/05/27 09:36:15;;;;;;;9.52;2.80;;;19.00;99.90;;;;;;4182926;28;20094;-69
2022/05/27 09:38:27;;;;;;;10.95;2.55;;;19.00;99.90;;;;;;4182995;28;20040;-68
2022/05/27 09:40:51;;;;;;;10.95;2.97;;;19.00;99.90;;;;;;4181559;28;20051;-68
2022/05/27 09:43:13;;;;;;;8.77;2.65;;;19.10;99.90;;;;;;4183197;28;20044;-68
2022/05/27 09:45:14;;;;;;;6.35;2.00;;;19.20;99.90;;;;;;4181260;28;20047;-68
2022/05/27 09:47:16;;;;;;;9.30;1.70;;;19.30;99.90;;;;;;4183574;28;20476;-68
2022/05/27 09:49:17;;;;;;;11.10;2.40;;;19.50;99.90;;;;;;4184335;28;20044;-68
2022/05/27 09:51:19;;;;;;;13.60;3.47;;;19.60;99.90;;;;;;4181642;28;20559;-68
2022/05/27 09:53:24;;;;;;;13.10;3.13;;;19.60;99.90;;;;;;4183356;28;20037;-68
2022/05/27 09:55:57;;;;;;;6.13;2.95;;;19.60;99.90;;;;;;4183111;28;20123;-69
2022/05/27 09:58:03;;;;;;;7.82;2.78;;;19.60;99.90;;;;;;4156501;28;20556;-68
2022/05/27 10:00:12;;;;;;;6.05;1.92;;;19.70;99.90;;;;;;4184602;28;20068;-68
2022/05/27 10:02:34;;;;;;;8.93;2.85;;;19.70;99.90;;;;;;4185283;28;20127;-68
2022/05/27 10:04:47;;;;;;;11.35;2.67;;;19.70;99.90;;;;;;4184755;28;20040;-68
2022/05/27 10:06:48;;;;;;;9.55;2.60;;;19.70;99.90;;;;;;4180328;28;20033;-69
2022/05/27 10:08:59;;;;;;;12.32;2.60;;;19.60;99.90;;;;;;4184245;28;20045;-68
2022/05/27 10:11:09;;;;;;;7.22;2.53;;;19.60;99.90;;;;;;4180909;28;20037;-69
2022/05/27 10:13:30;;;;;;;10.90;3.13;;;19.80;99.90;;;;;;4181828;28;20036;-68
2022/05/27 10:15:37;;;;;;;10.93;2.20;;;19.80;99.90;;;;;;4181188;28;20132;-69
2022/05/27 10:17:37;;;;;;;13.25;2.53;;;19.90;99.90;;;;;;4180301;28;20446;-69
2022/05/27 10:19:40;;;;;;;10.82;2.83;;;20.00;99.90;;;;;;4186281;28;20642;-69
2022/05/27 10:21:48;;;;;;;10.93;2.50;;;19.90;99.90;;;;;;4183170;28;20040;-69
2022/05/27 10:23:54;;;;;;;7.88;2.35;;;19.80;99.90;;;;;;4186325;28;20484;-69
2022/05/27 10:25:54;;;;;;;14.95;2.97;;;19.80;99.90;;;;;;4188697;28;20086;-69
2022/05/27 10:27:55;;;;;;;7.10;2.30;;;19.90;99.90;;;;;;4185502;28;20068;-69
2022/05/27 10:29:58;;;;;;;9.15;2.20;;;19.90;99.90;;;;;;4182054;28;20086;-69
2022/05/27 10:32:01;;;;;;;11.57;2.42;;;20.00;99.90;;;;;;4184636;28;20033;-68
2022/05/27 10:34:02;;;;;;;10.95;3.17;;;20.10;99.90;;;;;;4189012;28;20158;-68
2022/05/27 10:36:19;;;;;;;8.90;2.50;;;20.20;99.90;;;;;;4186687;28;20567;-70
2022/05/27 10:38:37;;;;;;;10.60;2.75;;;20.30;99.90;;;;;;4184996;28;20048;-69
2022/05/27 10:40:47;;;;;;;9.95;2.20;;;20.30;99.90;;;;;;4182551;28;20104;-68
2022/05/27 10:42:58;;;;;;;9.75;2.50;;;20.40;99.90;;;;;;4184819;28;20037;-68
2022/05/27 10:45:19;;;;;;;7.07;2.58;;;20.30;99.90;;;;;;4184552;28;20021;-68
2022/05/27 10:47:45;;;;;;;9.60;2.38;;;20.30;99.90;;;;;;4183033;28;20451;-68
2022/05/27 10:50:11;;;;;;;8.98;2.40;;;20.30;99.90;;;;;;4185569;28;20039;-68
2022/05/27 10:52:33;;;;;;;8.95;2.42;;;20.30;99.90;;;;;;4182167;28;20036;-68
2022/05/27 10:54:52;;;;;;;7.40;2.13;;;20.40;99.90;;;;;;4186309;28;20036;-69
2022/05/27 11:02:48;;;;;;;7.30;2.15;;;20.40;99.90;;;;;;4187731;28;20024;-69
2022/05/27 11:05:14;;;;;;;8.88;2.65;;;20.40;99.90;;;;;;4186611;28;20067;-69
2022/05/27 11:07:27;;;;;;;8.13;2.55;;;20.40;99.90;;;;;;4183992;28;20094;-69
2022/05/27 11:10:04;;;;;;;9.25;2.45;;;20.40;99.90;;;;;;4185024;28;20582;-69
2022/05/27 11:15:10;;;;;;;6.78;2.30;;;20.50;99.90;;;;;;4170329;28;20049;-69
2022/05/27 11:15:12;;;;;;;11.93;2.63;;;20.40;98.20;;;;;;4167626;28;20044;-69
2022/05/27 11:17:28;;;;;;;10.23;3.13;;;20.30;99.90;;;;;;4169956;28;20415;-69
2022/05/27 11:19:43;;;;;;;11.10;2.75;;;20.20;99.50;;;;;;4183685;28;20119;-70
2022/05/27 11:22:13;;;;;;;9.77;2.53;;;20.20;99.90;;;;;;4186487;28;20032;-69
2022/05/27 11:24:59;;;;;;;10.27;2.75;;;20.20;99.90;;;;;;4172702;28;20045;-69
2022/05/27 11:27:29;;;;;;;15.27;2.83;;;20.30;99.90;;;;;;4174227;28;20025;-69
2022/05/27 11:29:56;;;;;;;11.02;2.80;;;20.40;98.90;;;;;;4186075;28;20515;-69
2022/05/27 11:32:29;;;;;;;6.10;2.00;;;20.30;98.30;;;;;;4183614;28;20543;-69